sensor_id;sensor_type;location;lat;lon;timestamp;pressure;altitude;pressure_sealevel;temperature
14666;BMP280;7420;53.574;10.040;2023-08-31T00:00:27;44898.19;;;-136.87
14666;BMP280;7420;53.574;10.040;2023-08-31T00:02:53;45028.50;;;-136.87
14666;BMP280;7420;53.574;10.040;2023-08-31T00:05:19;45077.34;;;-136.87
14666;BMP280;7420;53.574;10.040;2023-08-31T00:07:44;45052.91;;;-136.87
14666;BMP280;7420;53.574;10.040;2023-08-31T00:10:10;44961.31;;;-136.87
14666;BMP280;7420;53.574;10.040;2023-08-31T00:12:37;45168.97;;;-136.87
14666;BMP280;7420;53.574;10.040;2023-08-31T00:15:03;45044.78;;;-136.87
14666;BMP280;7420;53.574;10.040;2023-08-31T00:17:30;45000.00;;;-136.87
14666;BMP280;7420;53.574;10.040;2023-08-31T00:19:55;45225.97;;;-136.87
14666;BMP280;7420;53.574;10.040;2023-08-31T00:22:20;45183.22;;;-136.87
14666;BMP280;7420;53.574;10.040;2023-08-31T00:24:46;45232.09;;;-136.87
14666;BMP280;7420;53.574;10.040;2023-08-31T00:27:11;45215.78;;;-136.87
14666;BMP280;7420;53.574;10.040;2023-08-31T00:29:39;45215.78;;;-136.87
14666;BMP280;7420;53.574;10.040;2023-08-31T00:32:05;45246.34;;;-136.87
14666;BMP280;7420;53.574;10.040;2023-08-31T00:34:31;45195.44;;;-136.87
14666;BMP280;7420;53.574;10.040;2023-08-31T00:36:56;45191.38;;;-136.87
14666;BMP280;7420;53.574;10.040;2023-08-31T00:39:21;45150.66;;;-136.87
14666;BMP280;7420;53.574;10.040;2023-08-31T00:41:47;45311.47;;;-136.87
14666;BMP280;7420;53.574;10.040;2023-08-31T00:44:12;45374.59;;;-136.87
14666;BMP280;7420;53.574;10.040;2023-08-31T00:46:40;45401.06;;;-136.87
14666;BMP280;7420;53.574;10.040;2023-08-31T00:49:05;45443.84;;;-136.87
14666;BMP280;7420;53.574;10.040;2023-08-31T00:51:31;45441.78;;;-136.87
14666;BMP280;7420;53.574;10.040;2023-08-31T00:53:57;45280.94;;;-136.87
14666;BMP280;7420;53.574;10.040;2023-08-31T00:56:24;45242.25;;;-136.87
14666;BMP280;7420;53.574;10.040;2023-08-31T00:58:49;45366.47;;;-136.87
14666;BMP280;7420;53.574;10.040;2023-08-31T01:04:20;45441.78;;;-136.87
14666;BMP280;7420;53.574;10.040;2023-08-31T01:07:03;45431.63;;;-136.87
14666;BMP280;7420;53.574;10.040;2023-08-31T01:12:41;45331.84;;;-136.87
14666;BMP280;7420;53.574;10.040;2023-08-31T01:15:11;45533.41;;;-136.87
14666;BMP280;7420;53.574;10.040;2023-08-31T01:17:40;45688.19;;;-136.87
14666;BMP280;7420;53.574;10.040;2023-08-31T01:20:10;45832.75;;;-136.87
14666;BMP280;7420;53.574;10.040;2023-08-31T01:22:43;45820.53;;;-136.87
14666;BMP280;7420;53.574;10.040;2023-08-31T01:25:09;45773.72;;;-136.87
14666;BMP280;7420;53.574;10.040;2023-08-31T01:27:35;45684.09;;;-136.87
14666;BMP280;7420;53.574;10.040;2023-08-31T01:30:02;45822.59;;;-136.87
14666;BMP280;7420;53.574;10.040;2023-08-31T01:32:29;45800.19;;;-136.87
14666;BMP280;7420;53.574;10.040;2023-08-31T01:34:54;45796.09;;;-136.87
14666;BMP280;7420;53.574;10.040;2023-08-31T01:37:39;45783.88;;;-136.87
14666;BMP280;7420;53.574;10.040;2023-08-31T01:40:40;45684.09;;;-136.87
14666;BMP280;7420;53.574;10.040;2023-08-31T01:43:10;45649.50;;;-136.87
14666;BMP280;7420;53.574;10.040;2023-08-31T01:45:36;45623.03;;;-136.87
14666;BMP280;7420;53.574;10.040;2023-08-31T01:48:05;45598.59;;;-136.87
14666;BMP280;7420;53.574;10.040;2023-08-31T01:50:31;45779.81;;;-136.87
14666;BMP280;7420;53.574;10.040;2023-08-31T01:52:56;45614.88;;;-136.87
14666;BMP280;7420;53.574;10.040;2023-08-31T01:55:23;45822.59;;;-136.87
14666;BMP280;7420;53.574;10.040;2023-08-31T01:57:48;45867.38;;;-136.87
14666;BMP280;7420;53.574;10.040;2023-08-31T02:00:14;45869.41;;;-136.87
14666;BMP280;7420;53.574;10.040;2023-08-31T02:02:40;45781.84;;;-136.87
14666;BMP280;7420;53.574;10.040;2023-08-31T02:05:07;45814.44;;;-136.87
14666;BMP280;7420;53.574;10.040;2023-08-31T02:07:32;45985.50;;;-136.87
14666;BMP280;7420;53.574;10.040;2023-08-31T02:09:57;45995.69;;;-136.87
14666;BMP280;7420;53.574;10.040;2023-08-31T02:12:23;46087.31;;;-136.87
14666;BMP280;7420;53.574;10.040;2023-08-31T02:14:48;46087.31;;;-136.87
14666;BMP280;7420;53.574;10.040;2023-08-31T02:17:13;46213.59;;;-136.87
14666;BMP280;7420;53.574;10.040;2023-08-31T02:19:39;46225.81;;;-136.87
14666;BMP280;7420;53.574;10.040;2023-08-31T02:22:04;46396.91;;;-136.87
14666;BMP280;7420;53.574;10.040;2023-08-31T02:24:29;46368.38;;;-136.87
14666;BMP280;7420;53.574;10.040;2023-08-31T02:26:55;46335.81;;;-136.87
14666;BMP280;7420;53.574;10.040;2023-08-31T02:29:21;46343.94;;;-136.87
14666;BMP280;7420;53.574;10.040;2023-08-31T02:31:46;46543.56;;;-136.87
14666;BMP280;7420;53.574;10.040;2023-08-31T02:34:12;46449.88;;;-136.87
14666;BMP280;7420;53.574;10.040;2023-08-31T02:36:37;46470.22;;;-136.87
14666;BMP280;7420;53.574;10.040;2023-08-31T02:39:02;46498.75;;;-136.87
14666;BMP280;7420;53.574;10.040;2023-08-31T02:41:29;46506.91;;;-136.87
14666;BMP280;7420;53.574;10.040;2023-08-31T02:43:54;46580.22;;;-136.87
14666;BMP280;7420;53.574;10.040;2023-08-31T02:46:20;46486.53;;;-136.87
14666;BMP280;7420;53.574;10.040;2023-08-31T02:48:46;46561.91;;;-136.87
14666;BMP280;7420;53.574;10.040;2023-08-31T02:51:11;46592.44;;;-136.87
14666;BMP280;7420;53.574;10.040;2023-08-31T02:53:37;46588.38;;;-136.87
14666;BMP280;7420;53.574;10.040;2023-08-31T02:56:02;46667.81;;;-136.87
14666;BMP280;7420;53.574;10.040;2023-08-31T02:58:28;46639.31;;;-136.87
14666;BMP280;7420;53.574;10.040;2023-08-31T03:00:54;46696.34;;;-136.87
14666;BMP280;7420;53.574;10.040;2023-08-31T03:03:20;46733.00;;;-136.87
14666;BMP280;7420;53.574;10.040;2023-08-31T03:05:46;46682.06;;;-136.87
14666;BMP280;7420;53.574;10.040;2023-08-31T03:08:11;46673.94;;;-136.87
14666;BMP280;7420;53.574;10.040;2023-08-31T03:10:38;46600.59;;;-136.87
14666;BMP280;7420;53.574;10.040;2023-08-31T03:13:03;46572.09;;;-136.87
14666;BMP280;7420;53.574;10.040;2023-08-31T03:15:29;46531.34;;;-136.87
14666;BMP280;7420;53.574;10.040;2023-08-31T03:17:54;46559.84;;;-136.87
14666;BMP280;7420;53.574;10.040;2023-08-31T03:20:20;46653.56;;;-136.87
14666;BMP280;7420;53.574;10.040;2023-08-31T03:22:45;46712.63;;;-136.87
14666;BMP280;7420;53.574;10.040;2023-08-31T03:25:11;46641.34;;;-136.87
14666;BMP280;7420;53.574;10.040;2023-08-31T03:27:36;46618.94;;;-136.87
14666;BMP280;7420;53.574;10.040;2023-08-31T03:30:02;46614.84;;;-136.87
14666;BMP280;7420;53.574;10.040;2023-08-31T03:32:28;46565.97;;;-136.87
14666;BMP280;7420;53.574;10.040;2023-08-31T03:34:53;46690.22;;;-136.87
14666;BMP280;7420;53.574;10.040;2023-08-31T03:37:19;46767.63;;;-136.87
14666;BMP280;7420;53.574;10.040;2023-08-31T03:39:47;46692.25;;;-136.87
14666;BMP280;7420;53.574;10.040;2023-08-31T03:42:12;46875.59;;;-136.87
14666;BMP280;7420;53.574;10.040;2023-08-31T03:44:38;46794.13;;;-136.87
14666;BMP280;7420;53.574;10.040;2023-08-31T03:47:03;46777.81;;;-136.87
14666;BMP280;7420;53.574;10.040;2023-08-31T03:49:29;46783.94;;;-136.87
14666;BMP280;7420;53.574;10.040;2023-08-31T03:51:55;46902.09;;;-136.87
14666;BMP280;7420;53.574;10.040;2023-08-31T03:54:20;46912.28;;;-136.87
14666;BMP280;7420;53.574;10.040;2023-08-31T03:56:46;46783.94;;;-136.87
14666;BMP280;7420;53.574;10.040;2023-08-31T03:59:12;46694.31;;;-136.87
14666;BMP280;7420;53.574;10.040;2023-08-31T04:01:37;46790.03;;;-136.87
14666;BMP280;7420;53.574;10.040;2023-08-31T04:04:03;46771.72;;;-136.87
14666;BMP280;7420;53.574;10.040;2023-08-31T04:06:29;46775.78;;;-136.87
14666;BMP280;7420;53.574;10.040;2023-08-31T04:08:54;46845.03;;;-136.87
14666;BMP280;7420;53.574;10.040;2023-08-31T04:11:20;46781.91;;;-136.87
14666;BMP280;7420;53.574;10.040;2023-08-31T04:13:45;46861.34;;;-136.87
14666;BMP280;7420;53.574;10.040;2023-08-31T04:16:11;46749.31;;;-136.87
14666;BMP280;7420;53.574;10.040;2023-08-31T04:18:36;46783.94;;;-136.87
14666;BMP280;7420;53.574;10.040;2023-08-31T04:21:01;46859.31;;;-136.87
14666;BMP280;7420;53.574;10.040;2023-08-31T04:23:29;46869.50;;;-136.87
14666;BMP280;7420;53.574;10.040;2023-08-31T04:25:54;46924.50;;;-136.87
14666;BMP280;7420;53.574;10.040;2023-08-31T04:28:21;46971.34;;;-136.87
14666;BMP280;7420;53.574;10.040;2023-08-31T04:30:46;46922.47;;;-136.87
14666;BMP280;7420;53.574;10.040;2023-08-31T04:33:11;47036.53;;;-136.87
14666;BMP280;7420;53.574;10.040;2023-08-31T04:35:37;47071.19;;;-136.87
14666;BMP280;7420;53.574;10.040;2023-08-31T04:38:02;46926.53;;;-136.87
14666;BMP280;7420;53.574;10.040;2023-08-31T04:40:28;47036.53;;;-136.87
14666;BMP280;7420;53.574;10.040;2023-08-31T04:42:54;46861.34;;;-136.87
14666;BMP280;7420;53.574;10.040;2023-08-31T04:45:19;46857.28;;;-136.87
14666;BMP280;7420;53.574;10.040;2023-08-31T04:47:45;46916.34;;;-136.87
14666;BMP280;7420;53.574;10.040;2023-08-31T04:50:10;46942.84;;;-136.87
14666;BMP280;7420;53.574;10.040;2023-08-31T04:52:36;47020.25;;;-136.87
14666;BMP280;7420;53.574;10.040;2023-08-31T04:55:01;47034.50;;;-136.87
14666;BMP280;7420;53.574;10.040;2023-08-31T04:57:29;46910.25;;;-136.87
14666;BMP280;7420;53.574;10.040;2023-08-31T04:59:54;46788.00;;;-136.87
14666;BMP280;7420;53.574;10.040;2023-08-31T05:02:19;46800.22;;;-136.87
14666;BMP280;7420;53.574;10.040;2023-08-31T05:04:45;46698.38;;;-136.87
14666;BMP280;7420;53.574;10.040;2023-08-31T05:07:10;46678.00;;;-136.87
14666;BMP280;7420;53.574;10.040;2023-08-31T05:09:36;46682.06;;;-136.87
14666;BMP280;7420;53.574;10.040;2023-08-31T05:12:02;46851.16;;;-136.87
14666;BMP280;7420;53.574;10.040;2023-08-31T05:14:30;46647.44;;;-136.87
14666;BMP280;7420;53.574;10.040;2023-08-31T05:16:56;46529.31;;;-136.87
14666;BMP280;7420;53.574;10.040;2023-08-31T05:19:21;46439.69;;;-136.87
14666;BMP280;7420;53.574;10.040;2023-08-31T05:21:47;46400.97;;;-136.87
14666;BMP280;7420;53.574;10.040;2023-08-31T05:24:12;46429.50;;;-136.87
14666;BMP280;7420;53.574;10.040;2023-08-31T05:26:39;46392.84;;;-136.87
14666;BMP280;7420;53.574;10.040;2023-08-31T05:29:07;46500.78;;;-136.87
14666;BMP280;7420;53.574;10.040;2023-08-31T05:31:33;46527.25;;;-136.87
14666;BMP280;7420;53.574;10.040;2023-08-31T05:33:58;46433.56;;;-136.87
14666;BMP280;7420;53.574;10.040;2023-08-31T05:36:23;46403.00;;;-136.87
14666;BMP280;7420;53.574;10.040;2023-08-31T05:38:51;46372.47;;;-136.87
14666;BMP280;7420;53.574;10.040;2023-08-31T05:41:16;46181.00;;;-136.87
14666;BMP280;7420;53.574;10.040;2023-08-31T05:43:41;46170.81;;;-136.87
14666;BMP280;7420;53.574;10.040;2023-08-31T05:46:08;46083.25;;;-136.87
14666;BMP280;7420;53.574;10.040;2023-08-31T05:48:34;46007.91;;;-136.87
14666;BMP280;7420;53.574;10.040;2023-08-31T05:51:00;45989.56;;;-136.87
14666;BMP280;7420;53.574;10.040;2023-08-31T05:53:25;45938.66;;;-136.87
14666;BMP280;7420;53.574;10.040;2023-08-31T05:55:50;45824.63;;;-136.87
14666;BMP280;7420;53.574;10.040;2023-08-31T05:58:16;45824.63;;;-136.87
14666;BMP280;7420;53.574;10.040;2023-08-31T06:00:41;45704.47;;;-136.87
14666;BMP280;7420;53.574;10.040;2023-08-31T06:03:06;45806.28;;;-136.87
14666;BMP280;7420;53.574;10.040;2023-08-31T06:05:32;45620.97;;;-136.87
14666;BMP280;7420;53.574;10.040;2023-08-31T06:07:58;45675.97;;;-136.87
14666;BMP280;7420;53.574;10.040;2023-08-31T06:10:24;45576.19;;;-136.87
14666;BMP280;7420;53.574;10.040;2023-08-31T06:12:50;45460.13;;;-136.87
14666;BMP280;7420;53.574;10.040;2023-08-31T06:15:16;45419.41;;;-136.87
14666;BMP280;7420;53.574;10.040;2023-08-31T06:17:42;45474.38;;;-136.87
14666;BMP280;7420;53.574;10.040;2023-08-31T06:20:07;45232.09;;;-136.87
14666;BMP280;7420;53.574;10.040;2023-08-31T06:22:33;45295.19;;;-136.87
14666;BMP280;7420;53.574;10.040;2023-08-31T06:24:59;45193.41;;;-136.87
14666;BMP280;7420;53.574;10.040;2023-08-31T06:27:25;45213.75;;;-136.87
14666;BMP280;7420;53.574;10.040;2023-08-31T06:29:50;45048.84;;;-136.87
14666;BMP280;7420;53.574;10.040;2023-08-31T06:32:16;45057.00;;;-136.87
14666;BMP280;7420;53.574;10.040;2023-08-31T06:34:42;45042.75;;;-136.87
14666;BMP280;7420;53.574;10.040;2023-08-31T06:37:07;44861.56;;;-136.87
14666;BMP280;7420;53.574;10.040;2023-08-31T06:39:33;44849.34;;;-136.87
14666;BMP280;7420;53.574;10.040;2023-08-31T06:41:58;44668.16;;;-136.87
14666;BMP280;7420;53.574;10.040;2023-08-31T06:44:24;44580.66;;;-136.87
14666;BMP280;7420;53.574;10.040;2023-08-31T06:46:49;44572.50;;;-136.87
14666;BMP280;7420;53.574;10.040;2023-08-31T06:49:14;44415.78;;;-136.87
14666;BMP280;7420;53.574;10.040;2023-08-31T06:51:40;44340.47;;;-136.87
14666;BMP280;7420;53.574;10.040;2023-08-31T06:54:05;44507.38;;;-136.87
14666;BMP280;7420;53.574;10.040;2023-08-31T06:56:35;44320.09;;;-136.87
14666;BMP280;7420;53.574;10.040;2023-08-31T06:59:00;44470.72;;;-136.87
14666;BMP280;7420;53.574;10.040;2023-08-31T07:01:27;44440.19;;;-136.87
14666;BMP280;7420;53.574;10.040;2023-08-31T07:03:53;44417.81;;;-136.87
14666;BMP280;7420;53.574;10.040;2023-08-31T07:06:18;44320.09;;;-136.87
14666;BMP280;7420;53.574;10.040;2023-08-31T07:08:44;44124.72;;;-136.87
14666;BMP280;7420;53.574;10.040;2023-08-31T07:11:11;44198.00;;;-136.87
14666;BMP280;7420;53.574;10.040;2023-08-31T07:13:36;44053.50;;;-136.87
14666;BMP280;7420;53.574;10.040;2023-08-31T07:16:02;43919.19;;;-136.87
14666;BMP280;7420;53.574;10.040;2023-08-31T07:18:27;43681.09;;;-136.87
14666;BMP280;7420;53.574;10.040;2023-08-31T07:20:53;43542.72;;;-136.87
14666;BMP280;7420;53.574;10.040;2023-08-31T07:23:18;43593.59;;;-136.87
14666;BMP280;7420;53.574;10.040;2023-08-31T07:25:43;43668.88;;;-136.87
14666;BMP280;7420;53.574;10.040;2023-08-31T07:28:09;43502.03;;;-136.87
14666;BMP280;7420;53.574;10.040;2023-08-31T07:30:35;43263.97;;;-136.87
14666;BMP280;7420;53.574;10.040;2023-08-31T07:33:01;43204.97;;;-136.87
14666;BMP280;7420;53.574;10.040;2023-08-31T07:35:29;43156.16;;;-136.87
14666;BMP280;7420;53.574;10.040;2023-08-31T07:37:54;43111.38;;;-136.87
14666;BMP280;7420;53.574;10.040;2023-08-31T07:40:20;43050.34;;;-136.87
14666;BMP280;7420;53.574;10.040;2023-08-31T07:42:45;42901.84;;;-136.87
14666;BMP280;7420;53.574;10.040;2023-08-31T07:45:10;42881.50;;;-136.87
14666;BMP280;7420;53.574;10.040;2023-08-31T07:47:36;42903.88;;;-136.87
14666;BMP280;7420;53.574;10.040;2023-08-31T07:50:01;42881.50;;;-136.87
14666;BMP280;7420;53.574;10.040;2023-08-31T07:52:27;42537.75;;;-136.87
14666;BMP280;7420;53.574;10.040;2023-08-31T07:54:52;42220.44;;;-136.87
14666;BMP280;7420;53.574;10.040;2023-08-31T07:57:19;42440.09;;;-136.87
14666;BMP280;7420;53.574;10.040;2023-08-31T07:59:44;42106.56;;;-136.87
14666;BMP280;7420;53.574;10.040;2023-08-31T08:02:09;41689.69;;;-136.87
14666;BMP280;7420;53.574;10.040;2023-08-31T08:04:35;41274.91;;;-136.87
14666;BMP280;7420;53.574;10.040;2023-08-31T08:07:00;41337.91;;;-136.87
14666;BMP280;7420;53.574;10.040;2023-08-31T08:09:25;41398.91;;;-136.87
14666;BMP280;7420;53.574;10.040;2023-08-31T08:11:51;41565.66;;;-136.87
14666;BMP280;7420;53.574;10.040;2023-08-31T08:14:16;40719.91;;;-136.87
14666;BMP280;7420;53.574;10.040;2023-08-31T08:16:42;42413.66;;;-136.87
14666;BMP280;7420;53.574;10.040;2023-08-31T08:19:07;40636.56;;;-136.87
14666;BMP280;7420;53.574;10.040;2023-08-31T08:21:33;22501.88;;;-136.87
14666;BMP280;7420;53.574;10.040;2023-08-31T08:23:59;36365.22;;;-136.87
14666;BMP280;7420;53.574;10.040;2023-08-31T08:26:24;37020.84;;;-136.87
14666;BMP280;7420;53.574;10.040;2023-08-31T08:28:49;38789.53;;;-136.87
14666;BMP280;7420;53.574;10.040;2023-08-31T08:31:15;35403.41;;;-136.87
14666;BMP280;7420;53.574;10.040;2023-08-31T08:33:40;34070.78;;;-136.87
14666;BMP280;7420;53.574;10.040;2023-08-31T08:36:06;33762.59;;;-136.87
14666;BMP280;7420;53.574;10.040;2023-08-31T08:38:31;40577.63;;;-136.87
14666;BMP280;7420;53.574;10.040;2023-08-31T08:40:57;40911.00;;;-136.87
14666;BMP280;7420;53.574;10.040;2023-08-31T08:43:26;29250.78;;;-136.87
14666;BMP280;7420;53.574;10.040;2023-08-31T08:45:53;41313.53;;;-136.87
14666;BMP280;7420;53.574;10.040;2023-08-31T08:48:20;41411.13;;;-136.87
14666;BMP280;7420;53.574;10.040;2023-08-31T08:50:45;40754.47;;;-136.87
14666;BMP280;7420;53.574;10.040;2023-08-31T08:53:11;39307.56;;;-136.87
14666;BMP280;7420;53.574;10.040;2023-08-31T08:55:40;39273.00;;;-136.87
14666;BMP280;7420;53.574;10.040;2023-08-31T08:58:06;14780.66;;;-136.87
14666;BMP280;7420;53.574;10.040;2023-08-31T09:00:32;33081.38;;;-136.87
14666;BMP280;7420;53.574;10.040;2023-08-31T09:03:01;40012.63;;;-136.87
14666;BMP280;7420;53.574;10.040;2023-08-31T09:05:33;39088.13;;;-136.87
14666;BMP280;7420;53.574;10.040;2023-08-31T09:08:08;41604.28;;;-136.87
14666;BMP280;7420;53.574;10.040;2023-08-31T09:10:39;42395.34;;;-136.87
14666;BMP280;7420;53.574;10.040;2023-08-31T09:13:06;42582.47;;;-136.87
14666;BMP280;7420;53.574;10.040;2023-08-31T09:18:03;42008.94;;;-136.87
14666;BMP280;7420;53.574;10.040;2023-08-31T09:20:29;41301.31;;;-136.87
14666;BMP280;7420;53.574;10.040;2023-08-31T09:22:55;40270.72;;;-136.87
14666;BMP280;7420;53.574;10.040;2023-08-31T09:25:21;16809.16;;;-136.87
14666;BMP280;7420;53.574;10.040;2023-08-31T09:27:46;15249.88;;;-136.87
14666;BMP280;7420;53.574;10.040;2023-08-31T09:30:12;31405.47;;;-136.87
14666;BMP280;7420;53.574;10.040;2023-08-31T09:32:38;11184.56;;;-136.87
14666;BMP280;7420;53.574;10.040;2023-08-31T09:35:08;9455.63;;;-136.87
14666;BMP280;7420;53.574;10.040;2023-08-31T09:37:33;16232.91;;;-136.87
14666;BMP280;7420;53.574;10.040;2023-08-31T09:40:04;11866.41;;;-136.87
14666;BMP280;7420;53.574;10.040;2023-08-31T09:42:36;12355.25;;;-136.87
14666;BMP280;7420;53.574;10.040;2023-08-31T09:45:03;10440.59;;;-136.87
14666;BMP280;7420;53.574;10.040;2023-08-31T09:47:28;11804.03;;;-136.87
14666;BMP280;7420;53.574;10.040;2023-08-31T09:49:54;27955.50;;;-136.87
14666;BMP280;7420;53.574;10.040;2023-08-31T10:11:16;37599.44;;;-136.87
14666;BMP280;7420;53.574;10.040;2023-08-31T10:13:42;34849.59;;;-136.87
14666;BMP280;7420;53.574;10.040;2023-08-31T10:16:08;30384.63;;;-136.87
14666;BMP280;7420;53.574;10.040;2023-08-31T10:18:34;30307.66;;;-136.87
14666;BMP280;7420;53.574;10.040;2023-08-31T10:21:02;23990.56;;;-136.87
14666;BMP280;7420;53.574;10.040;2023-08-31T10:23:28;28979.53;;;-136.87
14666;BMP280;7420;53.574;10.040;2023-08-31T10:28:21;34606.19;;;-136.87
14666;BMP280;7420;53.574;10.040;2023-08-31T10:31:07;17268.66;;;-136.87
14666;BMP280;7420;53.574;10.040;2023-08-31T10:33:34;17814.94;;;-136.87
14666;BMP280;7420;53.574;10.040;2023-08-31T10:36:00;17248.50;;;-136.87
14666;BMP280;7420;53.574;10.040;2023-08-31T10:43:49;33831.53;;;-136.87
14666;BMP280;7420;53.574;10.040;2023-08-31T10:46:34;25659.97;;;-136.87
14666;BMP280;7420;53.574;10.040;2023-08-31T10:51:35;37502.00;;;-136.87
14666;BMP280;7420;53.574;10.040;2023-08-31T10:54:20;36892.94;;;-136.87
14666;BMP280;7420;53.574;10.040;2023-08-31T10:59:53;7006.84;;;-136.87
14666;BMP280;7420;53.574;10.040;2023-08-31T11:05:01;7263.88;;;-136.87
14666;BMP280;7420;53.574;10.040;2023-08-31T11:07:29;6235.91;;;-136.87
14666;BMP280;7420;53.574;10.040;2023-08-31T11:12:43;34906.38;;;-136.87
14666;BMP280;7420;53.574;10.040;2023-08-31T11:15:11;32613.16;;;-136.87
14666;BMP280;7420;53.574;10.040;2023-08-31T11:17:37;19159.88;;;-136.87
14666;BMP280;7420;53.574;10.040;2023-08-31T11:20:05;13349.28;;;-136.87
14666;BMP280;7420;53.574;10.040;2023-08-31T11:22:31;31912.00;;;-136.87
14666;BMP280;7420;53.574;10.040;2023-08-31T11:24:58;7778.00;;;-136.87
14666;BMP280;7420;53.574;10.040;2023-08-31T11:27:24;31081.34;;;-136.87
14666;BMP280;7420;53.574;10.040;2023-08-31T11:29:50;5722.06;;;-136.87
14666;BMP280;7420;53.574;10.040;2023-08-31T11:32:15;6749.84;;;-136.87
14666;BMP280;7420;53.574;10.040;2023-08-31T11:34:41;25710.50;;;-136.87
14666;BMP280;7420;53.574;10.040;2023-08-31T11:37:08;7263.88;;;-136.87
14666;BMP280;7420;53.574;10.040;2023-08-31T11:39:34;7006.84;;;-136.87
14666;BMP280;7420;53.574;10.040;2023-08-31T11:41:59;12711.38;;;-136.87
14666;BMP280;7420;53.574;10.040;2023-08-31T11:44:25;12045.44;;;-136.87
14666;BMP280;7420;53.574;10.040;2023-08-31T11:46:51;10703.97;;;-136.87
14666;BMP280;7420;53.574;10.040;2023-08-31T11:49:18;10181.25;;;-136.87
14666;BMP280;7420;53.574;10.040;2023-08-31T11:51:44;4181.16;;;-136.87
14666;BMP280;7420;53.574;10.040;2023-08-31T11:54:10;3411.00;;;-136.87
14666;BMP280;7420;53.574;10.040;2023-08-31T11:56:42;3667.69;;;-136.87
14666;BMP280;7420;53.574;10.040;2023-08-31T11:59:09;25144.47;;;-136.87
14666;BMP280;7420;53.574;10.040;2023-08-31T12:01:39;3154.34;;;-136.87
14666;BMP280;7420;53.574;10.040;2023-08-31T12:06:42;1358.38;;;-136.87
14666;BMP280;7420;53.574;10.040;2023-08-31T12:09:11;1358.38;;;-136.87
14666;BMP280;7420;53.574;10.040;2023-08-31T12:11:36;3667.69;;;-136.87
14666;BMP280;7420;53.574;10.040;2023-08-31T12:14:17;5465.19;;;-136.87
14666;BMP280;7420;53.574;10.040;2023-08-31T12:16:42;33971.44;;;-136.87
14666;BMP280;7420;53.574;10.040;2023-08-31T12:19:09;32524.00;;;-136.87
14666;BMP280;7420;53.574;10.040;2023-08-31T12:21:34;10267.69;;;-136.87
14666;BMP280;7420;53.574;10.040;2023-08-31T12:24:00;28319.75;;;-136.87
14666;BMP280;7420;53.574;10.040;2023-08-31T12:26:26;18111.28;;;-136.87
14666;BMP280;7420;53.574;10.040;2023-08-31T12:28:52;21405.59;;;-136.87
14666;BMP280;7420;53.574;10.040;2023-08-31T12:31:17;34596.06;;;-136.87
14666;BMP280;7420;53.574;10.040;2023-08-31T12:33:42;36882.81;;;-136.87
14666;BMP280;7420;53.574;10.040;2023-08-31T12:36:08;37782.19;;;-136.87
14666;BMP280;7420;53.574;10.040;2023-08-31T12:38:33;38456.41;;;-136.87
14666;BMP280;7420;53.574;10.040;2023-08-31T12:40:59;38998.75;;;-136.87
14666;BMP280;7420;53.574;10.040;2023-08-31T12:43:24;39472.13;;;-136.87
14666;BMP280;7420;53.574;10.040;2023-08-31T12:45:50;40579.66;;;-136.87
14666;BMP280;7420;53.574;10.040;2023-08-31T12:48:15;42977.13;;;-136.87
14666;BMP280;7420;53.574;10.040;2023-08-31T12:50:40;43278.22;;;-136.87
14666;BMP280;7420;53.574;10.040;2023-08-31T12:53:06;43290.44;;;-136.87
14666;BMP280;7420;53.574;10.040;2023-08-31T12:55:31;43131.72;;;-136.87
14666;BMP280;7420;53.574;10.040;2023-08-31T12:57:56;41150.88;;;-136.87
14666;BMP280;7420;53.574;10.040;2023-08-31T13:00:23;13661.28;;;-136.87
14666;BMP280;7420;53.574;10.040;2023-08-31T13:02:49;10569.28;;;-136.87
14666;BMP280;7420;53.574;10.040;2023-08-31T13:05:16;7167.50;;;-136.87
14666;BMP280;7420;53.574;10.040;2023-08-31T13:07:41;6253.97;;;-136.87
14666;BMP280;7420;53.574;10.040;2023-08-31T13:10:07;8686.00;;;-136.87
14666;BMP280;7420;53.574;10.040;2023-08-31T13:12:33;7802.13;;;-136.87
14666;BMP280;7420;53.574;10.040;2023-08-31T13:14:59;5978.97;;;-136.87
14666;BMP280;7420;53.574;10.040;2023-08-31T13:17:25;5208.34;;;-136.87
14666;BMP280;7420;53.574;10.040;2023-08-31T13:19:55;5208.34;;;-136.87
14666;BMP280;7420;53.574;10.040;2023-08-31T13:22:21;13808.22;;;-136.87
14666;BMP280;7420;53.574;10.040;2023-08-31T13:24:47;10350.13;;;-136.87
14666;BMP280;7420;53.574;10.040;2023-08-31T13:27:12;11122.22;;;-136.87
14666;BMP280;7420;53.574;10.040;2023-08-31T13:29:41;11379.66;;;-136.87
14666;BMP280;7420;53.574;10.040;2023-08-31T13:32:07;9063.75;;;-136.87
14666;BMP280;7420;53.574;10.040;2023-08-31T13:34:32;9578.25;;;-136.87
14666;BMP280;7420;53.574;10.040;2023-08-31T13:36:58;9321.00;;;-136.87
14666;BMP280;7420;53.574;10.040;2023-08-31T13:41:50;9835.50;;;-136.87
14666;BMP280;7420;53.574;10.040;2023-08-31T13:44:16;9063.75;;;-136.87
14666;BMP280;7420;53.574;10.040;2023-08-31T13:46:41;8549.41;;;-136.87
14666;BMP280;7420;53.574;10.040;2023-08-31T13:49:06;6492.88;;;-136.87
14666;BMP280;7420;53.574;10.040;2023-08-31T13:51:32;6235.91;;;-136.87
14666;BMP280;7420;53.574;10.040;2023-08-31T13:53:57;5978.97;;;-136.87
14666;BMP280;7420;53.574;10.040;2023-08-31T13:56:22;7778.00;;;-136.87
14666;BMP280;7420;53.574;10.040;2023-08-31T13:58:48;6749.84;;;-136.87
14666;BMP280;7420;53.574;10.040;2023-08-31T14:01:14;3411.00;;;-136.87
14666;BMP280;7420;53.574;10.040;2023-08-31T14:03:39;5978.97;;;-136.87
14666;BMP280;7420;53.574;10.040;2023-08-31T14:06:04;5465.19;;;-136.87
14666;BMP280;7420;53.574;10.040;2023-08-31T14:08:30;5465.19;;;-136.87
14666;BMP280;7420;53.574;10.040;2023-08-31T14:10:55;-692.72;;;-136.87
14666;BMP280;7420;53.574;10.040;2023-08-31T14:13:21;9063.75;;;-136.87
14666;BMP280;7420;53.574;10.040;2023-08-31T14:15:47;28991.66;;;-136.87
14666;BMP280;7420;53.574;10.040;2023-08-31T14:18:13;33178.69;;;-136.87
14666;BMP280;7420;53.574;10.040;2023-08-31T14:20:39;34944.94;;;-136.87
14666;BMP280;7420;53.574;10.040;2023-08-31T14:23:04;32355.78;;;-136.87
14666;BMP280;7420;53.574;10.040;2023-08-31T14:25:35;4694.69;;;-136.87
14666;BMP280;7420;53.574;10.040;2023-08-31T14:28:00;6235.91;;;-136.87
14666;BMP280;7420;53.574;10.040;2023-08-31T14:30:26;29054.41;;;-136.87
14666;BMP280;7420;53.574;10.040;2023-08-31T14:32:51;34831.34;;;-136.87